Time;durP1;ratioP1;P1;durP2;ratioP2;P2;SDS_P1;SDS_P2;PMS_P1;PMS_P2;Temp;Humidity;BMP_temperature;BMP_pressure;BME280_temperature;BME280_humidity;BME280_pressure;Samples;Min_cycle;Max_cycle;Signal;HPM_P1;HPM_P2
2021/03/08 00:00:00;;;;;;;15.20;6.80;;;2.90;98.30;;;;;;5149429;23;20521;-82
2021/03/08 00:02:02;;;;;;;11.70;4.70;;;2.90;98.30;;;;;;5141518;23;20244;-83
2021/03/08 00:04:06;;;;;;;9.68;4.60;;;2.90;98.30;;;;;;5140870;23;20210;-82
2021/03/08 00:06:08;;;;;;;11.02;4.65;;;2.90;98.30;;;;;;5149017;23;20205;-83
2021/03/08 00:08:13;;;;;;;10.68;5.72;;;2.80;98.30;;;;;;5149553;23;20202;-82
2021/03/08 00:10:17;;;;;;;9.82;4.55;;;2.80;98.30;;;;;;5148542;23;20252;-83
2021/03/08 00:12:19;;;;;;;7.05;3.58;;;2.90;98.30;;;;;;5140440;23;20212;-83
2021/03/08 00:14:21;;;;;;;11.82;4.55;;;2.80;98.30;;;;;;5148745;23;20225;-83
2021/03/08 00:16:24;;;;;;;11.70;4.85;;;2.90;98.30;;;;;;5140976;23;20210;-82
2021/03/08 00:18:26;;;;;;;11.70;5.25;;;2.90;98.30;;;;;;5140575;23;20245;-82
2021/03/08 00:20:29;;;;;;;16.33;5.57;;;2.90;98.30;;;;;;5139930;23;20719;-82
2021/03/08 00:22:31;;;;;;;9.90;4.03;;;2.90;98.30;;;;;;5148987;23;20660;-82
2021/03/08 00:24:33;;;;;;;14.57;4.57;;;2.80;98.30;;;;;;5140506;23;20209;-82
2021/03/08 00:26:35;;;;;;;7.25;4.03;;;2.70;98.30;;;;;;5149307;23;20201;-83
2021/03/08 00:28:48;;;;;;;9.68;4.25;;;2.70;98.30;;;;;;5149707;23;20218;-83
2021/03/08 00:30:50;;;;;;;9.43;4.00;;;2.70;98.30;;;;;;5150022;23;20203;-83
2021/03/08 00:32:54;;;;;;;9.50;4.43;;;2.70;98.30;;;;;;5149646;23;20210;-82
2021/03/08 00:34:56;;;;;;;11.90;4.18;;;2.70;98.30;;;;;;5149437;23;20217;-83
2021/03/08 00:36:58;;;;;;;10.23;3.67;;;2.70;98.30;;;;;;5149034;23;20208;-83
2021/03/08 00:39:00;;;;;;;10.93;4.95;;;2.70;98.30;;;;;;5140301;23;20210;-83
2021/03/08 00:41:02;;;;;;;6.75;3.92;;;2.70;98.30;;;;;;5140168;23;20206;-83
2021/03/08 00:43:04;;;;;;;9.38;4.38;;;2.70;98.30;;;;;;5148816;23;20201;-83
2021/03/08 00:45:08;;;;;;;10.40;4.20;;;2.70;98.30;;;;;;5148456;23;20567;-82
2021/03/08 00:47:10;;;;;;;13.57;4.80;;;2.70;98.30;;;;;;5139676;23;20681;-83
2021/03/08 00:49:13;;;;;;;10.23;4.18;;;2.70;98.30;;;;;;5147182;23;20263;-83
2021/03/08 00:51:16;;;;;;;11.27;3.85;;;2.70;98.30;;;;;;5139911;23;20285;-83
2021/03/08 00:53:18;;;;;;;11.43;4.25;;;2.70;98.30;;;;;;5148141;23;20661;-83
2021/03/08 00:55:20;;;;;;;7.90;4.50;;;2.60;98.30;;;;;;5148866;23;20861;-82
2021/03/08 00:57:22;;;;;;;5.85;3.50;;;2.60;98.30;;;;;;5140521;23;20206;-83
2021/03/08 00:59:24;;;;;;;7.07;3.75;;;2.60;98.30;;;;;;5148210;23;20253;-83
2021/03/08 01:01:26;;;;;;;5.80;3.50;;;2.60;98.30;;;;;;5149032;23;21266;-82
2021/03/08 01:03:29;;;;;;;7.30;4.32;;;2.50;98.30;;;;;;5148589;23;20202;-83
2021/03/08 01:05:32;;;;;;;7.57;4.00;;;2.50;98.30;;;;;;5148548;23;20213;-83
2021/03/08 01:07:34;;;;;;;10.63;4.85;;;2.50;98.30;;;;;;5148585;23;20241;-82
2021/03/08 01:09:36;;;;;;;11.02;4.47;;;2.50;98.30;;;;;;5147987;23;20271;-83
2021/03/08 01:11:39;;;;;;;8.77;4.40;;;2.50;98.30;;;;;;5148470;23;20232;-83
2021/03/08 01:13:41;;;;;;;9.07;3.97;;;2.40;98.30;;;;;;5148684;23;20229;-83
2021/03/08 01:15:43;;;;;;;7.93;4.07;;;2.50;98.30;;;;;;5148111;23;20811;-83
2021/03/08 01:17:45;;;;;;;5.28;3.47;;;2.40;98.30;;;;;;5140449;23;20508;-83
2021/03/08 01:19:47;;;;;;;5.30;3.45;;;2.40;98.30;;;;;;5139397;23;20210;-83
2021/03/08 01:21:50;;;;;;;9.07;4.45;;;2.40;98.30;;;;;;5149398;23;20202;-83
2021/03/08 01:23:52;;;;;;;4.55;3.63;;;2.30;98.30;;;;;;5148602;23;20252;-83
2021/03/08 01:25:54;;;;;;;6.38;3.50;;;2.30;98.30;;;;;;5148530;23;20206;-83
2021/03/08 01:27:57;;;;;;;8.45;4.22;;;2.30;98.30;;;;;;5139941;23;20210;-83
2021/03/08 01:29:59;;;;;;;6.55;3.95;;;2.30;98.30;;;;;;5139563;23;20751;-83
2021/03/08 01:32:01;;;;;;;9.43;4.10;;;2.30;98.30;;;;;;5140177;23;20228;-83
2021/03/08 01:34:04;;;;;;;8.85;4.88;;;2.30;98.30;;;;;;5147779;23;20210;-83
2021/03/08 01:36:06;;;;;;;10.77;3.60;;;2.30;98.30;;;;;;5148384;23;20220;-83
2021/03/08 01:38:09;;;;;;;5.20;3.70;;;2.30;98.30;;;;;;5146747;23;20255;-82
2021/03/08 01:40:14;;;;;;;9.52;4.50;;;2.30;98.30;;;;;;5146806;23;20205;-83
2021/03/08 01:42:16;;;;;;;7.20;4.22;;;2.20;98.30;;;;;;5148596;23;20202;-83
2021/03/08 01:44:18;;;;;;;8.00;4.43;;;2.20;98.30;;;;;;5140013;23;20253;-83
2021/03/08 01:46:20;;;;;;;7.47;4.18;;;2.10;98.30;;;;;;5147756;23;20296;-83
2021/03/08 01:48:22;;;;;;;8.43;3.92;;;2.10;98.30;;;;;;5147556;23;20197;-83
2021/03/08 01:50:29;;;;;;;9.40;4.13;;;2.10;98.30;;;;;;5139240;23;20212;-83
2021/03/08 01:52:32;;;;;;;8.15;4.00;;;2.10;98.30;;;;;;5140014;23;20294;-83
2021/03/08 01:54:35;;;;;;;7.35;4.70;;;2.10;98.30;;;;;;5148469;23;20233;-83
2021/03/08 01:56:37;;;;;;;13.55;4.05;;;2.10;98.30;;;;;;5147925;23;20209;-83
2021/03/08 01:58:40;;;;;;;7.28;4.03;;;2.10;98.30;;;;;;5139747;23;20206;-83
2021/03/08 02:00:42;;;;;;;7.78;3.80;;;2.10;98.30;;;;;;5146620;23;20595;-83
2021/03/08 02:02:45;;;;;;;10.88;4.15;;;2.10;98.30;;;;;;5148509;23;20210;-82
2021/03/08 02:04:52;;;;;;;7.82;4.13;;;2.10;98.30;;;;;;5147062;23;20284;-83
2021/03/08 02:06:55;;;;;;;6.20;3.63;;;2.10;98.30;;;;;;5145754;23;20197;-82
2021/03/08 02:08:57;;;;;;;5.68;3.75;;;2.10;98.30;;;;;;5137366;23;20237;-83
2021/03/08 02:11:00;;;;;;;6.35;3.40;;;2.00;98.30;;;;;;5146728;23;20268;-82
2021/03/08 02:13:23;;;;;;;6.95;4.00;;;2.00;98.30;;;;;;5147533;23;20226;-82
2021/03/08 02:15:35;;;;;;;12.10;4.05;;;2.00;98.30;;;;;;5139442;23;20229;-82
2021/03/08 02:17:41;;;;;;;13.50;4.00;;;2.00;98.30;;;;;;5146935;23;20205;-82
2021/03/08 02:20:10;;;;;;;4.82;3.45;;;2.00;98.30;;;;;;5146529;23;20213;-83
2021/03/08 02:22:40;;;;;;;5.90;3.85;;;2.00;98.30;;;;;;5109544;23;20271;-83
2021/03/08 02:25:03;;;;;;;7.00;3.60;;;2.00;98.30;;;;;;5118068;23;20236;-83
2021/03/08 02:27:19;;;;;;;13.75;5.97;;;2.00;98.30;;;;;;5139692;23;20248;-83
2021/03/08 02:29:54;;;;;;;11.45;4.70;;;1.90;98.30;;;;;;5147596;23;20621;-83
2021/03/08 02:31:59;;;;;;;5.82;4.22;;;1.90;98.30;;;;;;5148646;23;20207;-83
2021/03/08 02:34:06;;;;;;;12.05;4.70;;;1.80;98.30;;;;;;5148144;23;20206;-83
2021/03/08 02:36:10;;;;;;;6.93;4.88;;;1.80;98.30;;;;;;5148503;23;20316;-83
2021/03/08 02:38:17;;;;;;;10.38;4.15;;;1.80;98.30;;;;;;5147992;23;20209;-83
2021/03/08 02:40:23;;;;;;;5.75;4.05;;;1.70;98.30;;;;;;5138029;23;20221;-83
2021/03/08 02:42:30;;;;;;;8.77;3.35;;;1.70;98.30;;;;;;5147510;23;20564;-83
2021/03/08 02:44:36;;;;;;;5.10;3.42;;;1.70;98.30;;;;;;5147065;23;20220;-83
2021/03/08 02:46:41;;;;;;;10.85;4.18;;;1.70;98.30;;;;;;5147438;23;20205;-83
2021/03/08 02:48:47;;;;;;;7.47;3.53;;;1.70;98.30;;;;;;5145010;23;20264;-83
2021/03/08 02:50:50;;;;;;;8.65;3.85;;;1.70;98.30;;;;;;5147437;23;20202;-82
2021/03/08 02:52:57;;;;;;;10.13;3.80;;;1.70;98.30;;;;;;5148430;23;20796;-82
2021/03/08 02:55:01;;;;;;;7.30;3.50;;;1.70;98.30;;;;;;5148168;23;20201;-83
2021/03/08 02:57:08;;;;;;;6.43;4.32;;;1.70;98.30;;;;;;5150108;23;20692;-83
2021/03/08 02:59:12;;;;;;;6.97;4.25;;;1.60;98.30;;;;;;5149067;23;20289;-82
2021/03/08 03:01:16;;;;;;;6.32;4.15;;;1.70;98.30;;;;;;5141508;23;20248;-83
2021/03/08 03:03:21;;;;;;;9.20;3.58;;;1.60;98.30;;;;;;5141679;23;20593;-83
2021/03/08 03:05:26;;;;;;;7.30;3.83;;;1.60;98.30;;;;;;5150245;23;20286;-83
2021/03/08 03:07:29;;;;;;;6.30;4.38;;;1.60;98.30;;;;;;5149720;23;20285;-83
2021/03/08 03:09:33;;;;;;;6.10;3.67;;;1.60;98.30;;;;;;5148605;23;20224;-83
2021/03/08 03:11:39;;;;;;;7.22;3.60;;;1.60;98.30;;;;;;5149559;23;20201;-83
2021/03/08 03:13:45;;;;;;;5.85;3.67;;;1.60;98.30;;;;;;5141036;23;20205;-83
2021/03/08 03:15:49;;;;;;;5.53;3.40;;;1.60;98.30;;;;;;5148781;23;20287;-83
2021/03/08 03:17:53;;;;;;;6.45;3.40;;;1.60;98.30;;;;;;5149581;23;20201;-83
2021/03/08 03:19:58;;;;;;;13.27;4.90;;;1.60;98.30;;;;;;5148676;23;20201;-83
2021/03/08 03:22:04;;;;;;;4.70;3.92;;;1.50;98.30;;;;;;5150242;23;20202;-82
2021/03/08 03:24:09;;;;;;;6.22;3.20;;;1.50;98.30;;;;;;5149365;23;20261;-82
2021/03/08 03:26:11;;;;;;;7.75;4.32;;;1.50;98.30;;;;;;5140917;23;20288;-83
2021/03/08 03:28:15;;;;;;;5.60;3.58;;;1.50;98.30;;;;;;5148626;23;20581;-83
2021/03/08 03:30:21;;;;;;;8.52;4.18;;;1.50;98.30;;;;;;5148616;23;20206;-83
2021/03/08 03:32:23;;;;;;;7.35;4.15;;;1.50;98.30;;;;;;5149193;23;20841;-83
2021/03/08 03:34:26;;;;;;;7.25;3.55;;;1.50;98.30;;;;;;5149500;23;20212;-82
2021/03/08 03:36:30;;;;;;;6.10;3.63;;;1.50;98.30;;;;;;5149085;23;20641;-83
2021/03/08 03:38:33;;;;;;;6.05;3.60;;;1.40;98.30;;;;;;5141203;23;20205;-82
2021/03/08 03:40:36;;;;;;;7.45;4.45;;;1.50;98.30;;;;;;5148335;23;20564;-83
2021/03/08 03:42:39;;;;;;;5.75;3.75;;;1.50;98.30;;;;;;5149246;23;20194;-83
2021/03/08 03:44:41;;;;;;;7.78;3.92;;;1.50;98.30;;;;;;5150023;23;20198;-83
2021/03/08 03:46:44;;;;;;;5.28;4.18;;;1.30;98.30;;;;;;5150565;23;20225;-83
2021/03/08 03:48:47;;;;;;;7.30;3.70;;;1.20;98.30;;;;;;5149541;23;20284;-83
2021/03/08 03:50:49;;;;;;;7.97;3.67;;;1.30;98.30;;;;;;5150341;23;20202;-83
2021/03/08 03:52:52;;;;;;;10.98;4.43;;;1.20;98.30;;;;;;5150664;23;20540;-83
2021/03/08 03:54:55;;;;;;;9.70;3.85;;;1.30;98.30;;;;;;5150530;23;20831;-83
2021/03/08 03:57:02;;;;;;;8.38;4.00;;;1.20;98.30;;;;;;5150018;23;20206;-83
2021/03/08 03:59:14;;;;;;;7.53;3.83;;;1.20;98.30;;;;;;5148196;23;20221;-83
2021/03/08 04:01:35;;;;;;;6.93;4.10;;;1.20;98.30;;;;;;5141430;23;20202;-82
2021/03/08 04:03:53;;;;;;;6.88;3.40;;;1.20;98.30;;;;;;5149351;23;20289;-83
2021/03/08 04:05:57;;;;;;;6.85;3.53;;;1.10;98.30;;;;;;5149001;23;20281;-83
2021/03/08 04:07:59;;;;;;;4.68;4.00;;;1.20;98.30;;;;;;5148765;23;20209;-83
2021/03/08 04:10:04;;;;;;;5.32;3.47;;;1.10;98.30;;;;;;5148442;23;20206;-83
2021/03/08 04:12:09;;;;;;;8.55;3.60;;;1.10;98.30;;;;;;5148754;23;20268;-83
2021/03/08 04:14:16;;;;;;;4.88;3.53;;;1.10;98.30;;;;;;5141060;23;20213;-82
2021/03/08 04:16:20;;;;;;;7.72;3.58;;;1.10;98.30;;;;;;5149126;23;20202;-84
2021/03/08 04:18:23;;;;;;;7.70;3.58;;;1.10;98.30;;;;;;5148363;23;20201;-84
2021/03/08 04:20:28;;;;;;;8.13;3.88;;;1.10;98.30;;;;;;5139768;23;20304;-82
2021/03/08 04:22:47;;;;;;;4.60;3.10;;;1.10;98.30;;;;;;5150437;23;20228;-83
2021/03/08 04:24:56;;;;;;;7.65;3.80;;;1.10;98.30;;;;;;5142266;23;20252;-83
2021/03/08 04:27:05;;;;;;;10.50;4.60;;;1.10;98.30;;;;;;5151089;23;20201;-82
2021/03/08 04:29:09;;;;;;;16.42;9.70;;;1.10;98.30;;;;;;5141954;23;20209;-82
2021/03/08 04:31:12;;;;;;;18.35;10.63;;;1.10;98.30;;;;;;5141559;23;20212;-83
2021/03/08 04:33:16;;;;;;;14.50;8.73;;;1.10;98.30;;;;;;5149607;23;20317;-82
2021/03/08 04:35:24;;;;;;;13.68;7.10;;;1.20;98.30;;;;;;5141096;23;20214;-83
2021/03/08 04:37:27;;;;;;;15.02;7.85;;;1.10;98.30;;;;;;5141203;23;20600;-82
2021/03/08 04:39:33;;;;;;;17.35;8.95;;;1.10;98.30;;;;;;5143207;23;20209;-83
2021/03/08 04:41:35;;;;;;;13.82;8.20;;;1.10;98.30;;;;;;5155080;23;20260;-82
2021/03/08 04:43:39;;;;;;;9.77;5.50;;;1.10;98.30;;;;;;5143748;23;20216;-83
2021/03/08 04:45:43;;;;;;;7.20;4.75;;;1.10;98.30;;;;;;5140356;23;20216;-83
2021/03/08 04:47:46;;;;;;;8.15;4.20;;;1.00;98.30;;;;;;5148778;23;20226;-83
2021/03/08 04:49:49;;;;;;;7.50;4.03;;;0.90;98.30;;;;;;5147392;23;20564;-84
2021/03/08 04:51:54;;;;;;;13.90;8.75;;;0.90;98.30;;;;;;5148673;23;20194;-83
2021/03/08 04:53:57;;;;;;;12.43;8.13;;;0.80;98.30;;;;;;5148518;23;20573;-82
2021/03/08 04:56:10;;;;;;;10.73;6.15;;;0.80;98.30;;;;;;5148946;23;20257;-83
2021/03/08 04:58:16;;;;;;;9.57;5.10;;;0.90;98.30;;;;;;5140045;23;20221;-83
2021/03/08 05:00:20;;;;;;;6.45;4.05;;;0.90;98.30;;;;;;5139829;23;20201;-83
2021/03/08 05:02:23;;;;;;;7.45;3.58;;;0.90;98.30;;;;;;5140169;23;20263;-83
2021/03/08 05:04:26;;;;;;;4.85;3.40;;;0.80;98.30;;;;;;5148155;23;20539;-83
2021/03/08 05:06:29;;;;;;;4.57;3.05;;;0.80;98.30;;;;;;5148370;23;20260;-82
2021/03/08 05:08:34;;;;;;;5.10;3.28;;;0.80;98.30;;;;;;5148596;23;20321;-83
2021/03/08 05:10:38;;;;;;;6.65;3.40;;;0.70;98.30;;;;;;5139810;23;20212;-83
2021/03/08 05:12:41;;;;;;;8.70;3.70;;;0.70;98.30;;;;;;5149258;23;20206;-83
2021/03/08 05:14:45;;;;;;;3.80;3.17;;;0.80;98.30;;;;;;5148885;23;20232;-83
2021/03/08 05:16:49;;;;;;;7.60;3.25;;;0.80;98.30;;;;;;5140882;23;20225;-82
2021/03/08 05:18:52;;;;;;;5.18;3.30;;;0.80;98.30;;;;;;5139329;23;20210;-82
2021/03/08 05:20:59;;;;;;;7.75;3.20;;;0.80;98.30;;;;;;5140696;23;20285;-83
2021/03/08 05:23:09;;;;;;;5.15;4.00;;;0.80;98.30;;;;;;5147994;23;20280;-83
2021/03/08 05:25:12;;;;;;;8.95;3.92;;;0.70;98.30;;;;;;5148028;23;20201;-83
2021/03/08 05:27:18;;;;;;;5.13;3.63;;;0.70;98.30;;;;;;5148492;23;20211;-84
2021/03/08 05:29:21;;;;;;;4.53;3.45;;;0.70;98.30;;;;;;5147976;23;20202;-83
2021/03/08 05:31:27;;;;;;;6.57;3.83;;;0.70;98.30;;;;;;5149405;23;20408;-83
2021/03/08 05:33:31;;;;;;;6.75;3.70;;;0.70;98.30;;;;;;5148986;23;20233;-83
2021/03/08 05:35:36;;;;;;;6.30;4.03;;;0.80;98.30;;;;;;5176982;22;20222;-82
2021/03/08 05:37:41;;;;;;;7.45;3.40;;;0.70;98.30;;;;;;5195237;22;20516;-81
2021/03/08 05:39:44;;;;;;;8.80;4.03;;;0.80;98.30;;;;;;5193839;22;20260;-81
2021/03/08 05:41:55;;;;;;;10.85;4.00;;;0.80;98.30;;;;;;5202806;22;20196;-81
2021/03/08 05:44:03;;;;;;;5.88;4.18;;;0.90;98.30;;;;;;5194759;22;20208;-81
2021/03/08 05:46:08;;;;;;;7.22;4.30;;;0.90;98.30;;;;;;5198651;22;20639;-81
2021/03/08 05:48:34;;;;;;;5.35;3.45;;;0.80;98.30;;;;;;5203932;22;20386;-81
2021/03/08 05:50:47;;;;;;;5.53;4.05;;;0.70;98.30;;;;;;5191614;22;20678;-82
2021/03/08 05:53:36;;;;;;;6.68;4.32;;;0.80;98.30;;;;;;5192468;22;20206;-81
2021/03/08 05:56:00;;;;;;;7.07;4.72;;;0.70;98.30;;;;;;5200703;22;20192;-81
2021/03/08 05:58:25;;;;;;;10.98;5.00;;;0.60;98.30;;;;;;5191822;22;20690;-81
2021/03/08 06:00:40;;;;;;;9.95;5.32;;;0.50;98.30;;;;;;5199830;22;20208;-81
2021/03/08 06:03:13;;;;;;;10.20;4.53;;;0.50;98.30;;;;;;5191957;22;20235;-81
2021/03/08 06:06:10;;;;;;;8.25;4.57;;;0.40;98.30;;;;;;5200756;22;20207;-81
2021/03/08 06:08:40;;;;;;;6.80;5.10;;;0.50;98.30;;;;;;5087144;23;20213;-81
2021/03/08 06:10:48;;;;;;;8.52;4.55;;;0.60;98.30;;;;;;5165060;22;20627;-81
2021/03/08 06:12:54;;;;;;;7.78;4.50;;;0.60;98.30;;;;;;5192723;22;20709;-81
2021/03/08 06:14:58;;;;;;;6.95;4.65;;;0.70;98.30;;;;;;5192109;22;20536;-81
2021/03/08 06:17:01;;;;;;;7.90;4.10;;;0.70;98.30;;;;;;5191682;22;20232;-81
2021/03/08 06:19:05;;;;;;;11.05;4.28;;;0.80;98.30;;;;;;5199264;22;20225;-81
2021/03/08 06:21:08;;;;;;;9.05;4.10;;;0.90;98.30;;;;;;5191953;22;20709;-81
2021/03/08 06:23:11;;;;;;;11.98;5.00;;;0.90;98.30;;;;;;5200728;22;20322;-81
2021/03/08 06:25:15;;;;;;;10.55;4.70;;;0.90;98.30;;;;;;5192228;22;20218;-81
2021/03/08 06:27:17;;;;;;;10.27;4.65;;;0.90;98.30;;;;;;5192194;22;20213;-81
2021/03/08 06:29:19;;;;;;;9.05;5.40;;;0.90;98.30;;;;;;5191518;22;20200;-81
2021/03/08 06:31:21;;;;;;;6.03;4.13;;;1.00;98.30;;;;;;5200687;22;20211;-81
2021/03/08 06:33:30;;;;;;;8.63;5.03;;;1.10;98.30;;;;;;5201056;22;20754;-81
2021/03/08 06:35:32;;;;;;;8.48;4.43;;;1.20;98.30;;;;;;5200329;22;20212;-83
2021/03/08 06:37:35;;;;;;;8.93;4.82;;;1.30;98.30;;;;;;5191908;22;20306;-81
2021/03/08 06:39:38;;;;;;;5.95;4.10;;;1.40;98.30;;;;;;5200024;22;20204;-81
2021/03/08 06:41:41;;;;;;;7.75;4.95;;;1.50;98.30;;;;;;5200201;22;20206;-82
2021/03/08 06:43:43;;;;;;;9.70;4.85;;;1.60;98.30;;;;;;5192798;22;20204;-81
2021/03/08 06:45:45;;;;;;;8.93;4.60;;;1.60;98.30;;;;;;5203455;22;20294;-81
2021/03/08 06:47:47;;;;;;;9.52;5.28;;;1.60;98.30;;;;;;5209571;22;20204;-81
2021/03/08 06:49:50;;;;;;;7.57;4.75;;;1.60;98.30;;;;;;5210281;22;20228;-80
2021/03/08 06:52:06;;;;;;;9.48;5.18;;;1.60;98.30;;;;;;5204047;22;20263;-80
2021/03/08 06:54:17;;;;;;;9.75;4.70;;;1.60;98.30;;;;;;5204415;22;20228;-81
2021/03/08 06:56:23;;;;;;;11.18;5.93;;;1.60;98.30;;;;;;5202561;22;20214;-81
2021/03/08 06:58:26;;;;;;;8.52;5.90;;;1.70;98.30;;;;;;5208803;22;20251;-80
2021/03/08 07:00:32;;;;;;;8.40;5.35;;;1.70;98.30;;;;;;5208829;22;20210;-81
2021/03/08 07:02:38;;;;;;;6.85;5.57;;;1.80;98.30;;;;;;5200451;22;20252;-81
2021/03/08 07:04:44;;;;;;;7.55;5.70;;;1.90;98.30;;;;;;5200943;22;20230;-81
2021/03/08 07:07:03;;;;;;;8.38;5.85;;;2.10;98.30;;;;;;5202509;22;20243;-81
2021/03/08 07:09:06;;;;;;;10.02;5.93;;;2.20;98.30;;;;;;5200934;22;20670;-80
2021/03/08 07:11:22;;;;;;;9.20;5.82;;;2.30;98.30;;;;;;5201652;22;20205;-81
2021/03/08 07:13:32;;;;;;;14.00;6.38;;;2.50;98.30;;;;;;5208933;22;20203;-83
2021/03/08 07:15:53;;;;;;;10.45;6.00;;;2.60;98.30;;;;;;5200992;22;20196;-81
2021/03/08 07:17:55;;;;;;;7.85;5.03;;;2.80;98.30;;;;;;5209391;22;20204;-81
2021/03/08 07:19:59;;;;;;;7.63;4.80;;;2.90;98.30;;;;;;5198915;22;20208;-81
2021/03/08 07:22:01;;;;;;;10.55;5.10;;;3.10;98.30;;;;;;5197661;22;20279;-80
2021/03/08 07:24:12;;;;;;;8.60;5.32;;;3.20;98.30;;;;;;5206904;22;20338;-81
2021/03/08 07:26:16;;;;;;;9.60;5.60;;;3.30;98.30;;;;;;5197684;22;20208;-81
2021/03/08 07:28:21;;;;;;;8.75;5.47;;;3.40;98.30;;;;;;5197603;22;20208;-81
2021/03/08 07:30:25;;;;;;;12.32;6.68;;;3.50;98.30;;;;;;5205333;22;20212;-81
2021/03/08 07:32:28;;;;;;;9.35;5.53;;;3.60;98.30;;;;;;5207103;22;20546;-81
2021/03/08 07:34:45;;;;;;;13.52;6.70;;;3.70;98.30;;;;;;5198050;22;20287;-81
2021/03/08 07:36:57;;;;;;;8.10;5.87;;;3.80;98.30;;;;;;5197089;22;20236;-81
2021/03/08 07:39:09;;;;;;;16.52;7.78;;;3.90;98.30;;;;;;5197432;22;20922;-81
2021/03/08 07:41:13;;;;;;;10.63;5.90;;;3.90;98.30;;;;;;5200467;22;20207;-80
2021/03/08 07:43:20;;;;;;;12.73;5.67;;;3.90;98.30;;;;;;5208554;22;20281;-79
2021/03/08 07:45:39;;;;;;;7.40;4.27;;;4.00;98.30;;;;;;5205982;22;20466;-80
2021/03/08 07:47:41;;;;;;;5.72;3.95;;;4.10;98.30;;;;;;5205335;22;20506;-81
2021/03/08 07:49:43;;;;;;;9.43;3.67;;;4.10;98.30;;;;;;5212755;22;20208;-82
2021/03/08 07:52:02;;;;;;;6.80;4.03;;;4.20;98.30;;;;;;5203822;22;20457;-82
2021/03/08 07:54:06;;;;;;;12.97;4.40;;;4.20;98.30;;;;;;5203871;22;20211;-81
2021/03/08 07:56:12;;;;;;;13.33;4.00;;;4.20;98.30;;;;;;5204900;22;20458;-80
2021/03/08 07:58:16;;;;;;;7.13;3.80;;;4.30;98.30;;;;;;5214510;22;20447;-81
2021/03/08 08:00:20;;;;;;;5.70;3.40;;;4.30;98.30;;;;;;5204724;22;20485;-80
2021/03/08 08:02:23;;;;;;;5.60;3.90;;;4.30;98.30;;;;;;5212221;22;20448;-80
2021/03/08 08:04:36;;;;;;;7.60;3.20;;;4.50;98.30;;;;;;5199902;22;20452;-80
2021/03/08 08:06:39;;;;;;;7.47;4.13;;;4.50;98.30;;;;;;5192826;22;20459;-80
2021/03/08 08:08:48;;;;;;;10.82;4.07;;;4.70;98.30;;;;;;5194445;22;20493;-82
2021/03/08 08:16:31;;;;;;;5.83;3.60;;;5.00;98.30;;;;;;5133211;23;20457;-83
2021/03/08 08:18:37;;;;;;;5.35;3.28;;;5.20;98.30;;;;;;5133018;23;20459;-82
2021/03/08 08:20:44;;;;;;;5.50;2.83;;;5.30;98.30;;;;;;5124194;23;20210;-82
2021/03/08 08:22:53;;;;;;;6.72;3.50;;;5.30;98.30;;;;;;5130673;23;20450;-83
2021/03/08 08:25:00;;;;;;;6.50;3.10;;;5.50;98.30;;;;;;5117018;23;20287;-78
2021/03/08 08:27:02;;;;;;;7.63;4.03;;;5.60;98.30;;;;;;5123270;23;20452;-82
2021/03/08 08:29:05;;;;;;;4.70;3.77;;;5.80;98.30;;;;;;5114779;23;20482;-81
2021/03/08 08:31:07;;;;;;;6.97;3.60;;;5.90;98.30;;;;;;5125310;23;20797;-80
2021/03/08 08:33:11;;;;;;;5.40;3.27;;;6.00;98.10;;;;;;5115981;23;20451;-81
2021/03/08 08:35:17;;;;;;;3.87;3.10;;;6.10;97.50;;;;;;5125237;23;20435;-81
2021/03/08 08:37:22;;;;;;;5.07;3.07;;;6.10;97.10;;;;;;5117253;23;20459;-81
2021/03/08 08:39:24;;;;;;;4.90;2.67;;;6.30;96.60;;;;;;5116435;23;20490;-81
2021/03/08 08:41:27;;;;;;;9.53;3.80;;;6.20;95.60;;;;;;5125800;23;20453;-81
2021/03/08 08:43:29;;;;;;;7.07;3.60;;;6.30;95.80;;;;;;5116515;23;20460;-81
2021/03/08 08:45:32;;;;;;;4.57;3.10;;;6.40;95.30;;;;;;5117608;23;20482;-82
2021/03/08 08:47:35;;;;;;;6.83;3.60;;;6.40;96.10;;;;;;5117834;23;20481;-81
2021/03/08 08:49:39;;;;;;;7.90;3.07;;;6.40;95.90;;;;;;5116683;23;20541;-82
2021/03/08 08:51:52;;;;;;;6.43;3.03;;;6.50;95.80;;;;;;5118704;23;20541;-82
2021/03/08 08:53:59;;;;;;;6.03;3.30;;;6.70;95.50;;;;;;5118763;23;20454;-81
2021/03/08 08:56:01;;;;;;;6.23;3.33;;;6.90;94.80;;;;;;5127205;23;20520;-81
2021/03/08 08:58:43;;;;;;;4.90;2.97;;;7.00;94.60;;;;;;5127030;23;20457;-81
2021/03/08 09:01:31;;;;;;;8.13;3.03;;;7.10;93.60;;;;;;5117185;23;20457;-82
2021/03/08 09:03:53;;;;;;;3.50;2.80;;;7.30;91.90;;;;;;5118018;23;20462;-82
2021/03/08 09:05:55;;;;;;;3.97;3.00;;;7.20;91.90;;;;;;5127534;23;20458;-82
2021/03/08 09:08:30;;;;;;;5.00;2.90;;;7.40;91.30;;;;;;5129423;23;20511;-81
2021/03/08 09:10:35;;;;;;;4.83;4.00;;;7.50;90.60;;;;;;5114219;23;20447;-82
2021/03/08 09:12:40;;;;;;;6.63;2.90;;;7.70;90.60;;;;;;5117385;23;20454;-82
2021/03/08 09:14:53;;;;;;;6.10;3.27;;;7.70;90.10;;;;;;5117625;23;20427;-82
2021/03/08 09:17:15;;;;;;;5.70;3.10;;;7.60;89.60;;;;;;5117537;23;20477;-82
2021/03/08 09:19:20;;;;;;;6.17;2.87;;;7.60;89.20;;;;;;5093831;23;20533;-82
2021/03/08 09:21:23;;;;;;;7.33;3.20;;;7.90;88.90;;;;;;5124953;23;20420;-82
2021/03/08 09:23:25;;;;;;;5.20;3.30;;;8.20;88.30;;;;;;5116104;23;20487;-82
2021/03/08 09:25:28;;;;;;;17.53;9.87;;;8.40;88.20;;;;;;5115622;23;20428;-82
2021/03/08 09:27:33;;;;;;;5.90;3.30;;;8.60;87.90;;;;;;5115964;23;20462;-83
2021/03/08 09:29:36;;;;;;;4.07;3.00;;;8.60;85.90;;;;;;5116483;23;20454;-82
2021/03/08 09:31:39;;;;;;;7.90;3.37;;;8.70;84.20;;;;;;5116750;23;20507;-82
2021/03/08 09:33:48;;;;;;;10.37;3.43;;;9.00;85.60;;;;;;5117407;23;21140;-82
2021/03/08 09:35:55;;;;;;;4.60;2.83;;;9.10;86.20;;;;;;5125227;23;20440;-83
2021/03/08 09:37:59;;;;;;;5.53;2.97;;;9.30;85.50;;;;;;5117219;23;20894;-82
2021/03/08 09:40:04;;;;;;;10.23;2.77;;;9.50;83.50;;;;;;5115431;23;20456;-82
2021/03/08 09:42:07;;;;;;;3.87;2.63;;;9.50;83.10;;;;;;5116040;23;20785;-82
2021/03/08 09:44:10;;;;;;;14.00;3.17;;;9.50;81.50;;;;;;5116572;23;20540;-82
2021/03/08 09:46:15;;;;;;;4.13;2.97;;;9.50;80.70;;;;;;5116041;23;20460;-83
2021/03/08 09:48:19;;;;;;;5.27;2.60;;;9.60;80.10;;;;;;5124161;23;20473;-82
2021/03/08 09:50:26;;;;;;;6.43;2.80;;;9.80;78.70;;;;;;5123952;23;20504;-82
2021/03/08 09:52:32;;;;;;;4.83;2.40;;;10.20;79.10;;;;;;5124278;23;20459;-82
2021/03/08 09:54:45;;;;;;;8.93;2.83;;;10.30;78.60;;;;;;5124210;23;20489;-82
2021/03/08 09:56:51;;;;;;;6.43;2.70;;;10.50;77.70;;;;;;5115502;23;20541;-82
2021/03/08 09:59:01;;;;;;;5.00;2.73;;;10.40;76.70;;;;;;5115482;23;20482;-83
2021/03/08 10:01:14;;;;;;;3.60;2.20;;;10.40;76.00;;;;;;5124830;23;20446;-82
2021/03/08 10:03:20;;;;;;;7.40;2.80;;;10.60;74.50;;;;;;5132610;23;20442;-81
2021/03/08 10:05:23;;;;;;;3.80;2.33;;;10.70;74.40;;;;;;5134495;23;20416;-82
2021/03/08 10:07:25;;;;;;;14.53;3.20;;;10.80;74.30;;;;;;5129073;23;20537;-82
2021/03/08 10:09:27;;;;;;;6.97;3.40;;;11.00;74.60;;;;;;5116475;23;20458;-82
2021/03/08 10:11:30;;;;;;;7.90;2.90;;;11.00;73.80;;;;;;5116381;23;20453;-82
2021/03/08 10:13:35;;;;;;;3.40;2.50;;;11.10;73.70;;;;;;5125466;23;20457;-83
2021/03/08 10:15:46;;;;;;;4.40;2.20;;;11.20;72.30;;;;;;5097028;23;556556;-83
2021/03/08 10:17:58;;;;;;;4.93;2.20;;;11.30;70.40;;;;;;5117055;23;21023;-82
2021/03/08 10:20:01;;;;;;;4.73;2.70;;;11.30;70.60;;;;;;5124129;23;20454;-83
2021/03/08 10:22:05;;;;;;;5.07;2.30;;;11.40;71.00;;;;;;5116489;23;20453;-81
2021/03/08 10:24:09;;;;;;;3.63;2.13;;;11.40;69.20;;;;;;5113794;23;20457;-84
2021/03/08 10:26:13;;;;;;;3.43;2.20;;;11.40;68.10;;;;;;5115612;23;20453;-82
2021/03/08 10:28:15;;;;;;;5.70;2.37;;;11.30;63.80;;;;;;5115063;23;20472;-82
2021/03/08 10:30:18;;;;;;;5.03;2.50;;;11.40;63.20;;;;;;5121667;23;21137;-81
2021/03/08 10:32:21;;;;;;;3.40;1.90;;;11.70;64.20;;;;;;5113931;23;20489;-81
2021/03/08 10:34:24;;;;;;;3.40;2.10;;;11.80;62.30;;;;;;5124034;23;20453;-82
2021/03/08 10:36:43;;;;;;;4.23;2.20;;;11.80;61.10;;;;;;5115564;23;21181;-82
2021/03/08 10:38:46;;;;;;;5.40;2.00;;;11.80;62.50;;;;;;5123308;23;20441;-81
2021/03/08 10:40:48;;;;;;;6.70;2.40;;;12.00;62.80;;;;;;5124014;23;20512;-81
2021/03/08 10:42:50;;;;;;;4.37;2.37;;;11.80;60.70;;;;;;5123747;23;20446;-82
2021/03/08 10:44:54;;;;;;;2.80;1.60;;;11.70;58.10;;;;;;5115841;23;20512;-82
2021/03/08 10:46:56;;;;;;;2.53;2.00;;;11.60;56.00;;;;;;5124234;23;20550;-82
2021/03/08 10:49:00;;;;;;;5.50;2.20;;;11.80;56.90;;;;;;5114553;23;20445;-81
2021/03/08 10:51:02;;;;;;;3.70;2.00;;;12.20;57.50;;;;;;5123731;23;20450;-82
2021/03/08 10:53:16;;;;;;;4.30;2.00;;;12.70;56.60;;;;;;5115641;23;20453;-82
2021/03/08 10:55:30;;;;;;;4.37;2.00;;;12.80;56.20;;;;;;5115838;23;20454;-82
2021/03/08 10:57:32;;;;;;;2.00;1.57;;;12.80;56.90;;;;;;5125072;23;20474;-83
2021/03/08 10:59:34;;;;;;;3.30;2.03;;;13.30;57.60;;;;;;5115641;23;20454;-82
2021/03/08 11:01:36;;;;;;;6.73;2.30;;;14.00;56.90;;;;;;5116280;23;21127;-82
2021/03/08 11:03:39;;;;;;;2.57;2.00;;;13.90;55.00;;;;;;5125176;23;20473;-82
2021/03/08 11:05:41;;;;;;;3.20;1.80;;;14.20;54.20;;;;;;5124115;23;20469;-82
2021/03/08 11:07:44;;;;;;;3.17;2.23;;;13.40;53.90;;;;;;5124471;23;20453;-83